Sheridan, NY (14135)

8:34 AM EST on February 27, 2017 (GMT -0500)
Eagle / Orchard | | Change Station

Elev 751 ft 42.44 °N, 79.32 °W | Updated 30 seconds ago

Clear
Clear
38.5 °F
Feels Like 38 °F
N
1.7
Wind Variable Wind from ESE

Today
High -- | Low -- °F
--% Chance of Precip.
Yesterday
High -- | Low -- °F
Precip. -- in
Pressure 30.24 in
Visibility 10.0 miles
Clouds Clear
Windchill 38 °F
Dew Point 22 °F
Humidity 50%
Rainfall 0.00 in
Snow Depth Not available.
6:55 AM 6:04 PM
New Moon, 1% visible
METAR KDKK 271253Z AUTO 19011KT 10SM CLR 03/M07 A3022 RMK AO2 SLP240 T00281072
Pressure 30.24 in
Visibility 10.0 miles
Clouds Clear
Windchill 38 °F
Dew Point 22 °F
Humidity 50%
Rainfall 0.00 in
Snow Depth Not available.
6:55 AM 6:04 PM
New Moon, 1% visible
METAR KDKK 271253Z AUTO 19011KT 10SM CLR 03/M07 A3022 RMK AO2 SLP240 T00281072

Get Your Daily Forecast Email!

Thanks for signing up!

Be on the lookout for a verification email in your inbox.

You'll start receiving the daily forecast at 8 AM.

×

10-Day Weather Forecast

Almanac

Astronomy

Feb. 27, 2017 Rise Set
Actual Time
Civil Twilight
Nautical Twilight
Astronomical Twilight
Moon
Length of Visible Light
Length of Day
Tomorrow will be .
, % of the Moon is Illuminated

Today's Extremes

State Highs State Lows

Community

WunderPhotos

Upload Photos

1,962,540 photos uploaded!

WunderBlog® & News

Nearby

Air Quality

  Air Quality AQ Index Pollutant
Not available.

Snow Depth

Station Depth Elevation

Earthquake Activity

City Distance Mag. Time & Date
Minimum magnitude displayed is 2.5.

Coastal Water Temperatures

Place Temperature

Stations

Nearby Weather Stations

Station Location Temp. Windchill Dew Point Humidity Wind Precip. Elev Updated Type
                   

Watches & Warnings

There are currently no watches in effect.